createdAt,value
2022-12-03T00:00:46.006Z,0.43
2022-12-03T00:03:12.769Z,0.42
2022-12-03T00:05:41.934Z,0.39
2022-12-03T00:08:14.875Z,0.47
2022-12-03T00:10:41.565Z,0.45
2022-12-03T00:13:08.174Z,0.39
2022-12-03T00:15:34.863Z,0.36
2022-12-03T00:18:01.542Z,0.44
2022-12-03T00:20:28.101Z,0.40
2022-12-03T00:22:54.774Z,0.42
2022-12-03T00:25:21.355Z,0.35
2022-12-03T00:27:47.975Z,0.34
2022-12-03T00:30:14.974Z,0.36
2022-12-03T00:32:41.568Z,0.40
2022-12-03T00:35:08.802Z,0.32
2022-12-03T00:37:35.428Z,0.34
2022-12-03T00:40:03.695Z,0.34
2022-12-03T00:42:30.318Z,0.37
2022-12-03T00:44:56.961Z,0.35
2022-12-03T00:47:23.566Z,0.28
2022-12-03T00:49:50.166Z,0.29
2022-12-03T00:52:16.753Z,0.28
2022-12-03T00:54:43.350Z,0.34
2022-12-03T00:57:09.935Z,0.28
2022-12-03T00:59:36.498Z,0.21
2022-12-03T01:02:03.164Z,0.24
2022-12-03T01:04:30.137Z,0.23
2022-12-03T01:06:56.744Z,0.20
2022-12-03T01:09:23.314Z,0.21
2022-12-03T01:11:49.879Z,0.29
2022-12-03T01:14:19.399Z,0.29
2022-12-03T01:16:46.998Z,0.28
2022-12-03T01:19:16.032Z,0.29
2022-12-03T01:21:44.534Z,0.32
2022-12-03T01:24:11.716Z,0.25
2022-12-03T01:26:38.969Z,0.28
2022-12-03T01:29:05.948Z,0.34
2022-12-03T01:31:51.281Z,0.23
2022-12-03T01:34:18.014Z,0.27
2022-12-03T01:36:44.706Z,0.24
2022-12-03T01:39:11.382Z,0.30
2022-12-03T01:41:38.595Z,0.27
2022-12-03T01:44:22.844Z,0.23
2022-12-03T01:46:50.458Z,0.28
2022-12-03T01:49:20.612Z,0.29
2022-12-03T01:51:48.803Z,0.31
2022-12-03T01:54:20.330Z,0.39
2022-12-03T01:56:47.477Z,0.40
2022-12-03T01:59:16.893Z,0.30
2022-12-03T02:01:43.677Z,0.33
2022-12-03T02:04:13.607Z,0.35
2022-12-03T02:06:41.150Z,0.38
2022-12-03T02:09:10.647Z,0.52
2022-12-03T02:11:43.727Z,0.41
2022-12-03T02:14:14.564Z,0.44
2022-12-03T02:16:42.129Z,0.62
2022-12-03T02:19:17.372Z,0.51
2022-12-03T02:21:55.881Z,0.53
2022-12-03T02:24:22.470Z,0.60
2022-12-03T02:26:49.785Z,0.66
2022-12-03T02:29:16.464Z,0.79
2022-12-03T02:31:43.675Z,0.74
2022-12-03T02:34:11.171Z,0.79
2022-12-03T02:36:38.232Z,0.91
2022-12-03T02:39:05.331Z,0.88
2022-12-03T02:41:50.792Z,0.93
2022-12-03T02:44:17.407Z,0.88
2022-12-03T02:46:44.105Z,0.85
2022-12-03T02:49:10.986Z,0.83
2022-12-03T02:51:37.707Z,0.80
2022-12-03T02:54:04.619Z,0.86
2022-12-03T02:56:31.810Z,0.84
2022-12-03T02:59:02.223Z,0.85
2022-12-03T03:01:29.031Z,0.89
2022-12-03T03:03:56.131Z,0.89
2022-12-03T03:06:22.985Z,0.87
2022-12-03T03:08:49.624Z,0.92
2022-12-03T03:11:16.319Z,0.91
2022-12-03T03:13:43.106Z,0.97
2022-12-03T03:16:09.961Z,1.06
2022-12-03T03:18:37.083Z,1.04
2022-12-03T03:21:04.318Z,1.08
2022-12-03T03:23:31.386Z,1.05
2022-12-03T03:26:07.248Z,1.06
2022-12-03T03:28:46.145Z,1.00
2022-12-03T03:31:14.545Z,1.09
2022-12-03T03:33:42.183Z,1.10
2022-12-03T03:36:09.380Z,1.03
2022-12-03T03:38:36.750Z,1.05
2022-12-03T03:41:06.221Z,1.11
2022-12-03T03:43:34.872Z,1.11
2022-12-03T03:46:03.685Z,1.10
2022-12-03T03:48:30.531Z,1.17
2022-12-03T03:50:57.257Z,1.18
2022-12-03T03:53:24.199Z,1.16
2022-12-03T03:55:51.299Z,1.07
2022-12-03T03:58:18.023Z,1.02
2022-12-03T04:00:45.493Z,1.13
2022-12-03T04:03:13.011Z,1.14
2022-12-03T04:05:39.727Z,1.07
2022-12-03T04:08:06.622Z,1.22
2022-12-03T04:10:53.907Z,1.15
2022-12-03T04:13:23.281Z,1.15
2022-12-03T04:15:49.963Z,1.16
2022-12-03T04:18:34.996Z,1.27
2022-12-03T04:21:24.685Z,1.31
2022-12-03T04:23:51.331Z,1.21
2022-12-03T04:26:36.861Z,1.20
2022-12-03T04:29:03.840Z,1.12
2022-12-03T04:31:49.232Z,1.13
2022-12-03T04:34:34.799Z,1.07
2022-12-03T04:37:02.945Z,1.02
2022-12-03T04:39:34.925Z,1.02
2022-12-03T04:42:03.457Z,0.98
2022-12-03T04:44:34.236Z,0.87
2022-12-03T04:47:02.713Z,0.93
2022-12-03T04:49:31.191Z,0.98
2022-12-03T04:51:58.713Z,0.99
2022-12-03T04:54:25.858Z,1.04
2022-12-03T04:56:52.553Z,1.05
2022-12-03T04:59:19.262Z,1.11
2022-12-03T05:01:46.030Z,1.01
2022-12-03T05:04:13.600Z,1.09
2022-12-03T05:06:40.647Z,1.12
2022-12-03T05:09:07.351Z,1.14
2022-12-03T05:11:34.195Z,1.06
2022-12-03T05:14:00.956Z,1.07
2022-12-03T05:16:28.735Z,1.11
2022-12-03T05:18:55.413Z,1.20
2022-12-03T05:21:22.095Z,1.15
2022-12-03T05:23:51.523Z,1.35
2022-12-03T05:26:18.171Z,1.27
2022-12-03T05:28:45.203Z,1.39
2022-12-03T05:31:12.070Z,1.26
2022-12-03T05:33:43.911Z,1.35
2022-12-03T05:36:10.950Z,1.48
2022-12-03T05:38:37.766Z,1.41
2022-12-03T05:41:24.844Z,1.42
2022-12-03T05:43:51.713Z,1.40
2022-12-03T05:46:18.671Z,1.44
2022-12-03T05:48:45.793Z,1.49
2022-12-03T05:51:12.787Z,1.39
2022-12-03T05:53:42.048Z,1.25
2022-12-03T05:56:08.938Z,1.31
2022-12-03T05:58:35.731Z,1.25
2022-12-03T06:01:02.507Z,1.22
2022-12-03T06:03:29.387Z,1.21
2022-12-03T06:05:56.315Z,1.17
2022-12-03T06:08:23.131Z,1.28
2022-12-03T06:10:49.842Z,1.37
2022-12-03T06:13:16.588Z,1.35
2022-12-03T06:15:44.117Z,1.36
2022-12-03T06:18:11.243Z,1.25
2022-12-03T06:20:37.951Z,1.33
2022-12-03T06:23:05.747Z,1.30
2022-12-03T06:25:32.677Z,1.22
2022-12-03T06:27:59.340Z,1.39
2022-12-03T06:30:25.983Z,1.40
2022-12-03T06:32:52.791Z,1.35
2022-12-03T06:35:19.472Z,1.51
2022-12-03T06:37:48.877Z,1.48
2022-12-03T06:40:16.857Z,1.42
2022-12-03T06:42:43.818Z,1.50
2022-12-03T06:45:11.624Z,1.47
2022-12-03T06:47:38.384Z,1.51
2022-12-03T06:50:06.921Z,1.59
2022-12-03T06:52:33.667Z,1.81
2022-12-03T06:55:00.888Z,1.74
2022-12-03T06:57:27.787Z,1.74
2022-12-03T06:59:54.664Z,1.79
2022-12-03T07:02:21.817Z,1.84
2022-12-03T07:04:48.684Z,1.90
2022-12-03T07:07:15.756Z,2.00
2022-12-03T07:09:43.006Z,2.00
2022-12-03T07:12:10.128Z,1.94
2022-12-03T07:14:37.815Z,2.12
2022-12-03T07:17:05.446Z,2.09
2022-12-03T07:19:33.652Z,2.11
2022-12-03T07:22:02.581Z,2.14
2022-12-03T07:24:37.499Z,2.10
2022-12-03T07:27:05.388Z,2.10
2022-12-03T07:29:37.475Z,2.14
2022-12-03T07:32:08.721Z,2.18
2022-12-03T07:34:37.582Z,2.11
2022-12-03T07:37:06.776Z,2.21
2022-12-03T07:39:54.712Z,2.25
2022-12-03T08:49:34.345Z,3.47
2022-12-03T08:52:02.116Z,3.60
2022-12-03T08:54:28.877Z,3.61
2022-12-03T08:56:55.746Z,3.70
2022-12-03T08:59:29.332Z,3.73
2022-12-03T09:01:57.042Z,3.73
2022-12-03T09:04:37.347Z,3.74
2022-12-03T09:07:04.910Z,3.76
2022-12-03T09:09:31.858Z,3.81
2022-12-03T09:11:59.276Z,3.74
2022-12-03T09:14:26.274Z,3.88
2022-12-03T09:16:56.510Z,4.05
2022-12-03T09:19:27.434Z,3.99
2022-12-03T09:21:57.887Z,4.01
2022-12-03T09:24:25.685Z,4.09
2022-12-03T09:26:52.399Z,4.15
2022-12-03T09:29:19.102Z,4.19
2022-12-03T09:31:46.061Z,4.27
2022-12-03T09:34:12.838Z,4.24
2022-12-03T09:36:39.608Z,4.37
2022-12-03T09:39:06.618Z,4.40
2022-12-03T09:41:33.746Z,4.47
2022-12-03T09:44:04.335Z,4.64
2022-12-03T09:46:32.119Z,4.62
2022-12-03T09:48:59.035Z,4.64
2022-12-03T09:51:31.750Z,4.64
2022-12-03T09:54:01.812Z,4.59
2022-12-03T09:56:28.637Z,4.64
2022-12-03T09:58:55.859Z,4.69
2022-12-03T10:01:24.971Z,4.57
2022-12-03T10:03:53.900Z,4.58
2022-12-03T10:06:22.898Z,4.49
2022-12-03T10:08:52.470Z,4.45
2022-12-03T10:11:20.378Z,4.34
2022-12-03T10:13:47.457Z,4.27
2022-12-03T10:16:17.488Z,4.37
2022-12-03T10:18:55.431Z,4.38
2022-12-03T10:21:40.232Z,4.36
2022-12-03T10:24:25.816Z,4.37
2022-12-03T10:26:55.209Z,4.51
2022-12-03T10:29:28.353Z,4.39
2022-12-03T10:32:10.047Z,4.52
2022-12-03T10:34:39.016Z,4.63
2022-12-03T10:37:11.920Z,4.54
2022-12-03T10:39:56.921Z,4.79
2022-12-03T10:42:25.240Z,4.81
2022-12-03T10:45:21.011Z,4.84
2022-12-03T10:48:19.773Z,4.85
2022-12-03T10:50:51.553Z,4.96
2022-12-03T10:53:19.988Z,4.87
2022-12-03T10:55:47.731Z,4.80
2022-12-03T10:58:22.687Z,5.02
2022-12-03T11:00:50.816Z,5.11
2022-12-03T11:03:28.106Z,5.21
2022-12-03T11:05:56.283Z,5.31
2022-12-03T11:08:27.617Z,5.45
2022-12-03T11:10:58.178Z,5.59
2022-12-03T11:13:34.183Z,5.42
2022-12-03T11:16:02.776Z,5.52
2022-12-03T11:18:38.574Z,5.49
2022-12-03T11:21:11.169Z,5.38
2022-12-03T11:23:47.100Z,5.42
2022-12-03T11:26:29.379Z,5.31
2022-12-03T11:28:57.158Z,5.22
2022-12-03T11:31:41.866Z,5.21
2022-12-03T11:34:22.645Z,5.11
2022-12-03T11:37:14.823Z,5.03
2022-12-03T11:40:16.781Z,4.91
2022-12-03T11:43:13.326Z,4.88
2022-12-03T11:45:40.361Z,4.79
2022-12-03T11:48:13.059Z,4.75
2022-12-03T11:50:57.719Z,4.68
2022-12-03T11:53:26.659Z,4.59
2022-12-03T11:56:06.504Z,4.54
2022-12-03T11:58:34.216Z,4.57
2022-12-03T12:01:03.377Z,4.46
2022-12-03T12:03:41.669Z,4.56
2022-12-03T12:06:16.741Z,4.60
2022-12-03T12:08:49.517Z,4.57
2022-12-03T12:11:43.734Z,4.57
2022-12-03T12:14:12.600Z,4.34
2022-12-03T12:16:52.373Z,4.46
2022-12-03T12:19:35.671Z,4.47
2022-12-03T12:22:25.256Z,4.46
2022-12-03T12:24:54.192Z,4.40
2022-12-03T12:27:56.263Z,4.37
2022-12-03T12:30:24.384Z,4.41
2022-12-03T12:32:56.124Z,4.38
2022-12-03T12:35:29.469Z,4.50
2022-12-03T12:38:11.798Z,4.62
2022-12-03T12:40:40.967Z,4.57
2022-12-03T12:43:20.335Z,4.59
2022-12-03T12:45:51.619Z,4.62
2022-12-03T12:48:27.680Z,4.71
2022-12-03T12:51:09.410Z,4.79
2022-12-03T12:53:37.702Z,4.77
2022-12-03T12:56:14.300Z,4.74
2022-12-03T12:58:42.261Z,4.64
2022-12-03T13:01:36.705Z,4.70
2022-12-03T13:04:17.434Z,4.50
2022-12-03T13:07:13.379Z,4.42
2022-12-03T13:18:34.130Z,4.34
2022-12-03T13:21:25.092Z,4.32
2022-12-03T13:24:00.242Z,4.22
2022-12-03T13:26:39.543Z,4.13
2022-12-03T13:29:16.563Z,4.12
2022-12-03T13:31:56.143Z,4.05
2022-12-03T13:34:25.941Z,4.04
2022-12-03T13:36:57.941Z,4.06
2022-12-03T13:39:37.418Z,3.94
2022-12-03T13:42:38.194Z,3.90
2022-12-03T13:45:40.466Z,3.85
2022-12-03T13:48:25.319Z,3.77
2022-12-03T13:50:53.476Z,3.81
2022-12-03T13:53:42.468Z,3.82
2022-12-03T13:56:31.659Z,3.76
2022-12-03T13:59:00.423Z,3.76
2022-12-03T14:01:28.257Z,3.80
2022-12-03T14:03:55.789Z,3.83
2022-12-03T14:06:22.586Z,3.75
2022-12-03T14:08:49.848Z,3.64
2022-12-03T14:11:35.262Z,3.61
2022-12-03T14:14:02.076Z,3.60
2022-12-03T14:16:28.902Z,3.57
2022-12-03T14:18:55.595Z,3.64
2022-12-03T14:21:22.206Z,3.66
2022-12-03T14:23:52.185Z,3.58
2022-12-03T14:26:18.847Z,3.57
2022-12-03T14:28:45.505Z,3.50
2022-12-03T14:31:12.153Z,3.51
2022-12-03T14:33:40.230Z,3.56
2022-12-03T14:36:09.059Z,3.52
2022-12-03T14:38:35.755Z,3.54
2022-12-03T14:41:02.735Z,3.54
2022-12-03T14:43:29.879Z,3.54
2022-12-03T14:45:57.293Z,3.57
2022-12-03T14:48:24.588Z,3.45
2022-12-03T14:50:51.230Z,3.53
2022-12-03T14:53:24.086Z,3.51
2022-12-03T14:55:55.864Z,3.43
2022-12-03T14:58:22.513Z,3.52
2022-12-03T15:00:49.192Z,3.47
2022-12-03T15:03:17.320Z,3.56
2022-12-03T15:05:44.373Z,3.52
2022-12-03T15:08:11.145Z,3.47
2022-12-03T15:10:38.337Z,3.53
2022-12-03T15:13:04.936Z,3.47
2022-12-03T15:15:32.326Z,3.44
2022-12-03T15:18:00.316Z,3.32
2022-12-03T15:20:27.571Z,3.44
2022-12-03T15:22:54.510Z,3.51
2022-12-03T15:25:25.603Z,3.44
2022-12-03T15:27:52.472Z,3.49
2022-12-03T15:30:20.962Z,3.33
2022-12-03T15:32:47.792Z,3.49
2022-12-03T15:35:18.997Z,3.52
2022-12-03T15:37:46.035Z,3.51
2022-12-03T15:40:14.875Z,3.52
2022-12-03T15:42:41.483Z,3.52
2022-12-03T15:45:14.804Z,3.47
2022-12-03T15:47:42.333Z,3.46
2022-12-03T15:50:09.822Z,3.49
2022-12-03T15:52:38.865Z,3.51
2022-12-03T15:55:05.759Z,3.49
2022-12-03T15:57:32.462Z,3.56
2022-12-03T15:59:59.365Z,3.55
2022-12-03T16:02:27.055Z,3.64
